sensor_id;sensor_type;location;lat;lon;timestamp;pressure;altitude;pressure_sealevel;temperature;humidity
35655;BME280;21773;50.010;19.972;2023-06-10T00:01:48;98441.75;;;22.23;95.82
35655;BME280;21773;50.010;19.972;2023-06-10T00:04:53;98459.13;;;22.19;95.97
35655;BME280;21773;50.010;19.972;2023-06-10T00:07:57;98455.88;;;22.17;96.28
35655;BME280;21773;50.010;19.972;2023-06-10T00:11:01;98446.22;;;22.19;96.67
35655;BME280;21773;50.010;19.972;2023-06-10T00:14:04;98453.63;;;22.19;97.04
35655;BME280;21773;50.010;19.972;2023-06-10T00:17:08;98450.28;;;22.22;97.25
35655;BME280;21773;50.010;19.972;2023-06-10T00:20:13;98450.00;;;22.23;97.65
35655;BME280;21773;50.010;19.972;2023-06-10T00:23:17;98450.19;;;22.27;97.90
35655;BME280;21773;50.010;19.972;2023-06-10T00:26:20;98455.03;;;22.30;97.60
35655;BME280;21773;50.010;19.972;2023-06-10T00:29:24;98461.03;;;22.32;98.21
35655;BME280;21773;50.010;19.972;2023-06-10T00:32:28;98456.84;;;22.34;97.47
35655;BME280;21773;50.010;19.972;2023-06-10T00:35:32;98461.41;;;22.39;96.68
35655;BME280;21773;50.010;19.972;2023-06-10T00:38:36;98457.25;;;22.41;96.80
35655;BME280;21773;50.010;19.972;2023-06-10T00:41:39;98456.97;;;22.43;96.35
35655;BME280;21773;50.010;19.972;2023-06-10T00:44:42;98464.28;;;22.48;96.41
35655;BME280;21773;50.010;19.972;2023-06-10T00:47:45;98463.13;;;22.48;96.54
35655;BME280;21773;50.010;19.972;2023-06-10T00:50:50;98470.25;;;22.50;96.08
35655;BME280;21773;50.010;19.972;2023-06-10T00:53:54;98467.50;;;22.50;95.96
35655;BME280;21773;50.010;19.972;2023-06-10T00:57:00;98468.31;;;22.50;95.70
35655;BME280;21773;50.010;19.972;2023-06-10T01:00:05;98476.03;;;22.48;95.93
35655;BME280;21773;50.010;19.972;2023-06-10T01:03:10;98473.31;;;22.48;95.22
35655;BME280;21773;50.010;19.972;2023-06-10T01:06:22;98455.13;;;22.38;95.23
35655;BME280;21773;50.010;19.972;2023-06-10T01:09:33;98476.84;;;22.48;95.01
35655;BME280;21773;50.010;19.972;2023-06-10T01:12:44;98469.38;;;22.40;95.08
35655;BME280;21773;50.010;19.972;2023-06-10T01:15:51;98472.09;;;22.40;95.08
35655;BME280;21773;50.010;19.972;2023-06-10T01:18:55;98467.72;;;22.39;95.02
35655;BME280;21773;50.010;19.972;2023-06-10T01:22:01;98468.06;;;22.38;95.27
35655;BME280;21773;50.010;19.972;2023-06-10T01:25:05;98466.72;;;22.35;94.92
35655;BME280;21773;50.010;19.972;2023-06-10T01:28:15;98478.94;;;22.29;95.46
35655;BME280;21773;50.010;19.972;2023-06-10T01:31:28;98477.00;;;22.30;95.45
35655;BME280;21773;50.010;19.972;2023-06-10T01:34:38;98478.94;;;22.29;96.12
35655;BME280;21773;50.010;19.972;2023-06-10T01:37:46;98485.56;;;22.28;96.44
35655;BME280;21773;50.010;19.972;2023-06-10T01:40:52;98476.13;;;22.21;96.30
35655;BME280;21773;50.010;19.972;2023-06-10T01:43:56;98480.97;;;22.24;96.46
35655;BME280;21773;50.010;19.972;2023-06-10T01:47:00;98482.13;;;22.23;96.16
35655;BME280;21773;50.010;19.972;2023-06-10T01:50:04;98478.56;;;22.22;96.53
35655;BME280;21773;50.010;19.972;2023-06-10T01:53:11;98479.69;;;22.21;96.33
35655;BME280;21773;50.010;19.972;2023-06-10T01:56:14;98476.13;;;22.21;96.69
35655;BME280;21773;50.010;19.972;2023-06-10T01:59:20;98480.78;;;22.20;97.03
35655;BME280;21773;50.010;19.972;2023-06-10T02:02:23;98477.75;;;22.22;97.02
35655;BME280;21773;50.010;19.972;2023-06-10T02:05:27;98481.31;;;22.22;97.33
35655;BME280;21773;50.010;19.972;2023-06-10T02:08:31;98478.56;;;22.22;97.42
35655;BME280;21773;50.010;19.972;2023-06-10T02:11:35;98484.25;;;22.26;97.61
35655;BME280;21773;50.010;19.972;2023-06-10T02:14:38;98484.25;;;22.26;97.78
35655;BME280;21773;50.010;19.972;2023-06-10T02:17:41;98483.44;;;22.25;97.90
35655;BME280;21773;50.010;19.972;2023-06-10T02:20:47;98482.00;;;22.28;98.15
35655;BME280;21773;50.010;19.972;2023-06-10T02:23:52;98488.31;;;22.28;98.03
35655;BME280;21773;50.010;19.972;2023-06-10T02:26:55;98481.69;;;22.29;97.86
35655;BME280;21773;50.010;19.972;2023-06-10T02:29:59;98467.06;;;22.20;98.08
35655;BME280;21773;50.010;19.972;2023-06-10T02:33:04;98489.00;;;22.34;97.93
35655;BME280;21773;50.010;19.972;2023-06-10T02:36:12;98483.22;;;22.35;97.82
35655;BME280;21773;50.010;19.972;2023-06-10T02:39:19;98495.81;;;22.36;97.97
35655;BME280;21773;50.010;19.972;2023-06-10T02:42:23;98485.66;;;22.37;97.92
35655;BME280;21773;50.010;19.972;2023-06-10T02:45:28;98495.00;;;22.36;97.85
35655;BME280;21773;50.010;19.972;2023-06-10T02:48:40;98487.59;;;22.36;98.09
35655;BME280;21773;50.010;19.972;2023-06-10T02:51:45;98497.47;;;22.37;98.07
35655;BME280;21773;50.010;19.972;2023-06-10T02:54:50;98501.63;;;22.35;98.32
35655;BME280;21773;50.010;19.972;2023-06-10T02:57:54;98489.91;;;22.29;98.74
35655;BME280;21773;50.010;19.972;2023-06-10T03:01:00;98500.69;;;22.39;98.95
35655;BME280;21773;50.010;19.972;2023-06-10T03:04:10;98506.41;;;22.43;98.79
35655;BME280;21773;50.010;19.972;2023-06-10T03:07:22;98510.03;;;22.38;98.63
35655;BME280;21773;50.010;19.972;2023-06-10T03:10:29;98514.13;;;22.41;98.04
35655;BME280;21773;50.010;19.972;2023-06-10T03:13:35;98513.00;;;22.42;98.02
35655;BME280;21773;50.010;19.972;2023-06-10T03:16:38;98512.50;;;22.40;98.08
35655;BME280;21773;50.010;19.972;2023-06-10T03:19:44;98509.97;;;22.30;98.67
35655;BME280;21773;50.010;19.972;2023-06-10T03:22:48;98516.78;;;22.19;99.69
35655;BME280;21773;50.010;19.972;2023-06-10T03:25:53;98524.22;;;22.18;99.61
35655;BME280;21773;50.010;19.972;2023-06-10T03:28:58;98522.06;;;22.15;100.00
35655;BME280;21773;50.010;19.972;2023-06-10T03:32:01;98508.16;;;22.12;100.00
35655;BME280;21773;50.010;19.972;2023-06-10T03:35:06;98503.28;;;22.09;100.00
35655;BME280;21773;50.010;19.972;2023-06-10T03:38:11;98519.84;;;22.17;100.00
35655;BME280;21773;50.010;19.972;2023-06-10T03:41:16;98526.47;;;22.16;100.00
35655;BME280;21773;50.010;19.972;2023-06-10T03:44:20;98519.97;;;22.12;100.00
35655;BME280;21773;50.010;19.972;2023-06-10T03:47:23;98527.56;;;22.15;100.00
35655;BME280;21773;50.010;19.972;2023-06-10T03:50:28;98526.66;;;22.20;100.00
35655;BME280;21773;50.010;19.972;2023-06-10T03:53:31;98526.16;;;22.18;100.00
35655;BME280;21773;50.010;19.972;2023-06-10T03:56:36;98525.34;;;22.17;100.00
35655;BME280;21773;50.010;19.972;2023-06-10T03:59:39;98535.59;;;22.25;100.00
35655;BME280;21773;50.010;19.972;2023-06-10T04:02:43;98535.50;;;22.30;100.00
35655;BME280;21773;50.010;19.972;2023-06-10T04:05:59;98534.28;;;22.36;100.00
35655;BME280;21773;50.010;19.972;2023-06-10T04:09:03;98538.03;;;22.40;100.00
35655;BME280;21773;50.010;19.972;2023-06-10T04:12:09;98537.84;;;22.37;100.00
35655;BME280;21773;50.010;19.972;2023-06-10T04:15:12;98540.78;;;22.40;100.00
35655;BME280;21773;50.010;19.972;2023-06-10T04:18:16;98540.97;;;22.44;100.00
35655;BME280;21773;50.010;19.972;2023-06-10T04:21:21;98544.13;;;22.51;100.00
35655;BME280;21773;50.010;19.972;2023-06-10T04:24:24;98544.63;;;22.53;100.00
35655;BME280;21773;50.010;19.972;2023-06-10T04:27:29;98540.56;;;22.51;100.00
35655;BME280;21773;50.010;19.972;2023-06-10T04:30:34;98540.56;;;22.51;100.00
35655;BME280;21773;50.010;19.972;2023-06-10T04:33:38;98543.63;;;22.35;100.00
35655;BME280;21773;50.010;19.972;2023-06-10T04:36:42;98545.75;;;22.38;100.00
35655;BME280;21773;50.010;19.972;2023-06-10T04:39:46;98546.09;;;22.37;100.00
35655;BME280;21773;50.010;19.972;2023-06-10T04:42:51;98548.75;;;22.28;100.00
35655;BME280;21773;50.010;19.972;2023-06-10T04:45:55;98550.44;;;22.24;100.00
35655;BME280;21773;50.010;19.972;2023-06-10T04:48:58;98554.41;;;22.32;100.00
35655;BME280;21773;50.010;19.972;2023-06-10T04:52:03;98560.09;;;22.35;100.00
35655;BME280;21773;50.010;19.972;2023-06-10T04:55:11;98559.47;;;22.38;100.00
35655;BME280;21773;50.010;19.972;2023-06-10T04:58:16;98567.63;;;22.43;100.00
35655;BME280;21773;50.010;19.972;2023-06-10T05:01:19;98567.94;;;22.42;100.00
35655;BME280;21773;50.010;19.972;2023-06-10T05:04:23;98573.63;;;22.45;100.00
35655;BME280;21773;50.010;19.972;2023-06-10T05:07:26;98565.50;;;22.40;100.00
35655;BME280;21773;50.010;19.972;2023-06-10T05:10:29;98570.16;;;22.54;100.00
35655;BME280;21773;50.010;19.972;2023-06-10T05:13:35;98574.03;;;22.53;99.77
35655;BME280;21773;50.010;19.972;2023-06-10T05:16:38;98579.94;;;22.46;100.00
35655;BME280;21773;50.010;19.972;2023-06-10T05:19:42;98565.81;;;22.53;99.37
35655;BME280;21773;50.010;19.972;2023-06-10T05:22:45;98578.00;;;22.60;98.91
35655;BME280;21773;50.010;19.972;2023-06-10T05:25:52;98584.59;;;22.59;98.85
35655;BME280;21773;50.010;19.972;2023-06-10T05:28:56;98580.34;;;22.67;97.71
35655;BME280;21773;50.010;19.972;2023-06-10T05:32:04;98582.03;;;22.63;96.80
35655;BME280;21773;50.010;19.972;2023-06-10T05:35:09;98583.31;;;22.70;96.63
35655;BME280;21773;50.010;19.972;2023-06-10T05:38:13;98583.50;;;22.74;96.33
35655;BME280;21773;50.010;19.972;2023-06-10T05:41:16;98581.25;;;22.76;95.72
35655;BME280;21773;50.010;19.972;2023-06-10T05:44:21;98585.41;;;22.73;94.74
35655;BME280;21773;50.010;19.972;2023-06-10T05:47:24;98593.06;;;22.76;94.78
35655;BME280;21773;50.010;19.972;2023-06-10T05:50:28;98588.53;;;22.94;94.54
35655;BME280;21773;50.010;19.972;2023-06-10T05:53:31;98579.75;;;23.06;92.85
35655;BME280;21773;50.010;19.972;2023-06-10T05:56:38;98589.50;;;23.12;92.12
35655;BME280;21773;50.010;19.972;2023-06-10T05:59:43;98589.34;;;23.30;91.67
35655;BME280;21773;50.010;19.972;2023-06-10T06:02:49;98589.28;;;23.44;90.92
35655;BME280;21773;50.010;19.972;2023-06-10T06:05:53;98587.41;;;23.31;88.47
35655;BME280;21773;50.010;19.972;2023-06-10T06:08:56;98588.97;;;23.46;88.69
35655;BME280;21773;50.010;19.972;2023-06-10T06:11:59;98583.72;;;23.58;88.07
35655;BME280;21773;50.010;19.972;2023-06-10T06:15:05;98583.34;;;23.73;86.12
35655;BME280;21773;50.010;19.972;2023-06-10T06:18:10;98578.00;;;23.77;85.40
35655;BME280;21773;50.010;19.972;2023-06-10T06:21:13;98583.97;;;24.01;85.84
35655;BME280;21773;50.010;19.972;2023-06-10T06:24:17;98585.91;;;24.00;82.70
35655;BME280;21773;50.010;19.972;2023-06-10T06:27:20;98585.09;;;24.00;81.80
35655;BME280;21773;50.010;19.972;2023-06-10T06:30:25;98587.09;;;24.08;81.58
35655;BME280;21773;50.010;19.972;2023-06-10T06:33:29;98592.84;;;24.20;81.26
35655;BME280;21773;50.010;19.972;2023-06-10T06:36:32;98588.22;;;24.38;78.98
35655;BME280;21773;50.010;19.972;2023-06-10T06:39:35;98596.81;;;24.45;78.93
35655;BME280;21773;50.010;19.972;2023-06-10T06:42:39;98599.38;;;24.33;76.06
35655;BME280;21773;50.010;19.972;2023-06-10T06:45:52;98601.84;;;24.43;76.68
35655;BME280;21773;50.010;19.972;2023-06-10T06:48:55;98606.06;;;24.49;77.30
35655;BME280;21773;50.010;19.972;2023-06-10T06:51:59;98596.38;;;24.51;75.88
35655;BME280;21773;50.010;19.972;2023-06-10T06:55:03;98598.03;;;24.70;75.28
35655;BME280;21773;50.010;19.972;2023-06-10T06:58:06;98612.63;;;24.79;75.20
35655;BME280;21773;50.010;19.972;2023-06-10T07:01:11;98609.28;;;24.90;74.52
35655;BME280;21773;50.010;19.972;2023-06-10T07:04:15;98611.09;;;25.03;73.93
35655;BME280;21773;50.010;19.972;2023-06-10T07:07:19;98612.56;;;25.10;72.37
35655;BME280;21773;50.010;19.972;2023-06-10T07:10:22;98612.75;;;25.30;72.22
35655;BME280;21773;50.010;19.972;2023-06-10T07:13:27;98610.97;;;25.26;71.00
35655;BME280;21773;50.010;19.972;2023-06-10T07:16:32;98618.91;;;25.10;69.82
35655;BME280;21773;50.010;19.972;2023-06-10T07:19:35;98620.69;;;25.15;71.69
35655;BME280;21773;50.010;19.972;2023-06-10T07:22:39;98620.34;;;25.08;71.08
35655;BME280;21773;50.010;19.972;2023-06-10T07:25:43;98634.31;;;25.11;70.52
35655;BME280;21773;50.010;19.972;2023-06-10T07:28:46;98631.53;;;25.02;71.65
35655;BME280;21773;50.010;19.972;2023-06-10T07:31:51;98621.31;;;25.03;71.02
35655;BME280;21773;50.010;19.972;2023-06-10T07:34:55;98618.75;;;25.07;70.65
35655;BME280;21773;50.010;19.972;2023-06-10T07:37:58;98624.72;;;25.17;71.02
35655;BME280;21773;50.010;19.972;2023-06-10T07:41:01;98624.75;;;25.26;70.85
35655;BME280;21773;50.010;19.972;2023-06-10T07:44:05;98626.84;;;25.37;70.72
35655;BME280;21773;50.010;19.972;2023-06-10T07:47:09;98633.03;;;25.26;70.14
35655;BME280;21773;50.010;19.972;2023-06-10T07:50:13;98628.94;;;25.32;69.54
35655;BME280;21773;50.010;19.972;2023-06-10T07:53:16;98626.22;;;25.58;69.08
35655;BME280;21773;50.010;19.972;2023-06-10T07:56:20;98628.50;;;25.64;68.10
35655;BME280;21773;50.010;19.972;2023-06-10T07:59:24;98621.16;;;25.51;66.06
35655;BME280;21773;50.010;19.972;2023-06-10T08:02:29;98633.53;;;25.62;67.76
35655;BME280;21773;50.010;19.972;2023-06-10T08:05:33;98634.28;;;25.97;66.07
35655;BME280;21773;50.010;19.972;2023-06-10T08:08:37;98634.03;;;26.19;64.14
35655;BME280;21773;50.010;19.972;2023-06-10T08:11:43;98638.06;;;26.39;63.82
35655;BME280;21773;50.010;19.972;2023-06-10T08:14:47;98635.38;;;26.60;61.42
35655;BME280;21773;50.010;19.972;2023-06-10T08:17:52;98648.38;;;26.68;59.95
35655;BME280;21773;50.010;19.972;2023-06-10T08:20:55;98642.78;;;26.77;59.23
35655;BME280;21773;50.010;19.972;2023-06-10T08:23:58;98648.78;;;26.79;59.47
35655;BME280;21773;50.010;19.972;2023-06-10T08:27:02;98641.03;;;26.72;58.21
35655;BME280;21773;50.010;19.972;2023-06-10T08:30:07;98644.38;;;26.86;59.92
35655;BME280;21773;50.010;19.972;2023-06-10T08:33:13;98638.00;;;26.86;59.64
35655;BME280;21773;50.010;19.972;2023-06-10T08:36:17;98642.94;;;27.30;60.47
35655;BME280;21773;50.010;19.972;2023-06-10T08:39:21;98633.88;;;27.42;57.84
35655;BME280;21773;50.010;19.972;2023-06-10T08:42:28;98644.50;;;27.40;56.17
35655;BME280;21773;50.010;19.972;2023-06-10T08:45:32;98643.31;;;27.49;58.34
35655;BME280;21773;50.010;19.972;2023-06-10T08:48:42;98636.75;;;27.87;56.99
35655;BME280;21773;50.010;19.972;2023-06-10T08:51:50;98641.25;;;28.12;55.87
35655;BME280;21773;50.010;19.972;2023-06-10T08:54:57;98647.47;;;28.09;53.91
35655;BME280;21773;50.010;19.972;2023-06-10T08:58:02;98640.13;;;28.13;54.98
35655;BME280;21773;50.010;19.972;2023-06-10T09:01:06;98624.94;;;28.11;54.94
35655;BME280;21773;50.010;19.972;2023-06-10T09:04:11;98640.03;;;28.01;54.00
35655;BME280;21773;50.010;19.972;2023-06-10T09:07:15;98637.34;;;28.13;54.27
35655;BME280;21773;50.010;19.972;2023-06-10T09:10:19;98621.50;;;27.81;52.54
35655;BME280;21773;50.010;19.972;2023-06-10T09:13:22;98635.63;;;27.88;54.52
35655;BME280;21773;50.010;19.972;2023-06-10T09:16:25;98635.88;;;27.95;53.28
35655;BME280;21773;50.010;19.972;2023-06-10T09:19:31;98631.00;;;27.92;51.99
35655;BME280;21773;50.010;19.972;2023-06-10T09:22:35;98635.38;;;28.14;51.47
35655;BME280;21773;50.010;19.972;2023-06-10T09:25:38;98630.13;;;28.57;51.13
35655;BME280;21773;50.010;19.972;2023-06-10T09:28:43;98639.59;;;29.05;50.91
35655;BME280;21773;50.010;19.972;2023-06-10T09:31:47;98639.13;;;29.15;48.12
35655;BME280;21773;50.010;19.972;2023-06-10T09:34:51;98635.97;;;29.28;48.64
35655;BME280;21773;50.010;19.972;2023-06-10T09:37:56;98637.81;;;29.24;49.38
35655;BME280;21773;50.010;19.972;2023-06-10T09:41:00;98637.34;;;29.22;49.07
35655;BME280;21773;50.010;19.972;2023-06-10T09:44:11;98633.47;;;29.11;48.68
35655;BME280;21773;50.010;19.972;2023-06-10T09:47:20;98630.69;;;28.99;49.58
35655;BME280;21773;50.010;19.972;2023-06-10T09:50:32;98623.06;;;28.84;48.91
35655;BME280;21773;50.010;19.972;2023-06-10T09:53:36;98634.53;;;28.82;49.54
35655;BME280;21773;50.010;19.972;2023-06-10T09:56:39;98633.69;;;28.70;49.78
35655;BME280;21773;50.010;19.972;2023-06-10T09:59:45;98630.81;;;28.42;50.05
35655;BME280;21773;50.010;19.972;2023-06-10T10:02:49;98635.97;;;28.19;51.11
35655;BME280;21773;50.010;19.972;2023-06-10T10:05:59;98634.97;;;28.03;51.74
35655;BME280;21773;50.010;19.972;2023-06-10T10:09:03;98633.78;;;27.92;52.21
35655;BME280;21773;50.010;19.972;2023-06-10T10:12:09;98631.84;;;27.72;50.95
35655;BME280;21773;50.010;19.972;2023-06-10T10:15:16;98645.66;;;27.60;53.41
35655;BME280;21773;50.010;19.972;2023-06-10T10:18:23;98645.78;;;27.42;53.12
35655;BME280;21773;50.010;19.972;2023-06-10T10:21:38;98652.28;;;27.26;53.30
35655;BME280;21773;50.010;19.972;2023-06-10T10:24:48;98648.34;;;27.27;54.95
35655;BME280;21773;50.010;19.972;2023-06-10T10:28:02;98651.72;;;27.32;53.57
35655;BME280;21773;50.010;19.972;2023-06-10T10:31:09;98646.03;;;27.29;53.70
35655;BME280;21773;50.010;19.972;2023-06-10T10:34:16;98641.75;;;27.40;53.62
35655;BME280;21773;50.010;19.972;2023-06-10T10:37:21;98648.53;;;27.42;54.45
35655;BME280;21773;50.010;19.972;2023-06-10T10:40:25;98644.97;;;27.42;55.79
35655;BME280;21773;50.010;19.972;2023-06-10T10:43:32;98656.47;;;27.52;56.31
35655;BME280;21773;50.010;19.972;2023-06-10T10:46:42;98641.44;;;27.95;54.56
35655;BME280;21773;50.010;19.972;2023-06-10T10:49:48;98641.19;;;28.33;53.59
35655;BME280;21773;50.010;19.972;2023-06-10T10:52:56;98651.72;;;28.52;52.26
35655;BME280;21773;50.010;19.972;2023-06-10T10:56:05;98650.47;;;28.49;51.93
35655;BME280;21773;50.010;19.972;2023-06-10T10:59:10;98654.78;;;28.26;53.53
35655;BME280;21773;50.010;19.972;2023-06-10T11:02:17;98656.13;;;28.08;54.76
35655;BME280;21773;50.010;19.972;2023-06-10T11:05:31;98641.66;;;27.90;57.07
35655;BME280;21773;50.010;19.972;2023-06-10T11:08:57;98648.41;;;27.80;58.08
35655;BME280;21773;50.010;19.972;2023-06-10T11:12:07;98653.97;;;27.60;55.83
35655;BME280;21773;50.010;19.972;2023-06-10T11:15:10;98647.94;;;27.37;58.11
35655;BME280;21773;50.010;19.972;2023-06-10T11:18:23;98643.47;;;27.44;60.48
35655;BME280;21773;50.010;19.972;2023-06-10T11:21:27;98651.41;;;27.54;61.78
35655;BME280;21773;50.010;19.972;2023-06-10T11:24:32;98649.16;;;27.69;62.75
35655;BME280;21773;50.010;19.972;2023-06-10T11:27:41;98637.38;;;27.60;61.29
35655;BME280;21773;50.010;19.972;2023-06-10T11:30:56;98642.66;;;27.85;63.05
35655;BME280;21773;50.010;19.972;2023-06-10T11:34:06;98639.69;;;27.90;63.91
35655;BME280;21773;50.010;19.972;2023-06-10T11:37:09;98637.75;;;28.03;62.87
35655;BME280;21773;50.010;19.972;2023-06-10T11:40:16;98634.97;;;28.03;61.56
35655;BME280;21773;50.010;19.972;2023-06-10T11:43:19;98640.84;;;28.01;59.12
35655;BME280;21773;50.010;19.972;2023-06-10T11:46:24;98642.94;;;27.72;58.04
35655;BME280;21773;50.010;19.972;2023-06-10T11:49:29;98655.19;;;27.71;59.85
35655;BME280;21773;50.010;19.972;2023-06-10T11:52:33;98646.75;;;27.46;59.52
35655;BME280;21773;50.010;19.972;2023-06-10T11:55:44;98655.44;;;27.36;61.87
35655;BME280;21773;50.010;19.972;2023-06-10T11:58:52;98649.72;;;27.41;60.00
35655;BME280;21773;50.010;19.972;2023-06-10T12:01:56;98645.34;;;27.61;59.89
35655;BME280;21773;50.010;19.972;2023-06-10T12:05:10;98641.34;;;27.71;56.63
35655;BME280;21773;50.010;19.972;2023-06-10T12:08:13;98653.84;;;27.56;55.70
35655;BME280;21773;50.010;19.972;2023-06-10T12:11:18;98655.00;;;27.55;53.82
35655;BME280;21773;50.010;19.972;2023-06-10T12:14:49;98648.75;;;27.79;54.44
35655;BME280;21773;50.010;19.972;2023-06-10T12:17:53;98637.78;;;28.15;53.83
35655;BME280;21773;50.010;19.972;2023-06-10T12:20:56;98636.69;;;28.28;50.43
35655;BME280;21773;50.010;19.972;2023-06-10T12:24:07;98645.16;;;28.44;51.70
35655;BME280;21773;50.010;19.972;2023-06-10T12:27:13;98635.91;;;28.52;51.15
35655;BME280;21773;50.010;19.972;2023-06-10T12:30:19;98639.88;;;28.88;49.83
35655;BME280;21773;50.010;19.972;2023-06-10T12:33:23;98637.88;;;29.00;49.07
35655;BME280;21773;50.010;19.972;2023-06-10T12:36:26;98643.19;;;28.93;48.62
35655;BME280;21773;50.010;19.972;2023-06-10T12:39:30;98634.75;;;28.90;49.66
35655;BME280;21773;50.010;19.972;2023-06-10T12:42:36;98634.88;;;28.81;46.84
35655;BME280;21773;50.010;19.972;2023-06-10T12:45:41;98638.56;;;28.97;47.49
35655;BME280;21773;50.010;19.972;2023-06-10T12:48:50;98651.03;;;29.15;48.85
35655;BME280;21773;50.010;19.972;2023-06-10T12:51:56;98635.88;;;29.13;47.25
35655;BME280;21773;50.010;19.972;2023-06-10T12:54:59;98640.25;;;29.26;47.24
35655;BME280;21773;50.010;19.972;2023-06-10T12:58:05;98631.03;;;29.22;46.28
35655;BME280;21773;50.010;19.972;2023-06-10T13:01:08;98629.44;;;28.97;43.73
35655;BME280;21773;50.010;19.972;2023-06-10T13:04:11;98632.34;;;28.76;44.29
35655;BME280;21773;50.010;19.972;2023-06-10T13:07:15;98621.34;;;28.79;46.14
35655;BME280;21773;50.010;19.972;2023-06-10T13:10:19;98631.31;;;28.93;44.93
35655;BME280;21773;50.010;19.972;2023-06-10T13:13:27;98627.56;;;29.01;44.17
35655;BME280;21773;50.010;19.972;2023-06-10T13:16:31;98620.97;;;29.17;44.44
35655;BME280;21773;50.010;19.972;2023-06-10T13:19:35;98629.16;;;29.26;44.18
35655;BME280;21773;50.010;19.972;2023-06-10T13:22:39;98619.06;;;29.46;44.33
35655;BME280;21773;50.010;19.972;2023-06-10T13:25:42;98624.38;;;29.51;43.72
35655;BME280;21773;50.010;19.972;2023-06-10T13:28:47;98622.00;;;29.65;43.92
35655;BME280;21773;50.010;19.972;2023-06-10T13:31:51;98625.91;;;29.36;42.08
35655;BME280;21773;50.010;19.972;2023-06-10T13:34:54;98630.78;;;29.15;41.92
35655;BME280;21773;50.010;19.972;2023-06-10T13:37:58;98629.56;;;28.88;43.33
35655;BME280;21773;50.010;19.972;2023-06-10T13:41:02;98630.03;;;28.78;43.91
35655;BME280;21773;50.010;19.972;2023-06-10T13:44:07;98627.00;;;28.34;43.51
35655;BME280;21773;50.010;19.972;2023-06-10T13:47:10;98636.34;;;27.97;45.01
35655;BME280;21773;50.010;19.972;2023-06-10T13:50:14;98628.16;;;27.68;47.08
35655;BME280;21773;50.010;19.972;2023-06-10T13:53:17;98628.88;;;27.77;46.97
35655;BME280;21773;50.010;19.972;2023-06-10T13:56:20;98634.41;;;27.77;47.36
35655;BME280;21773;50.010;19.972;2023-06-10T13:59:26;98621.50;;;27.81;46.91
35655;BME280;21773;50.010;19.972;2023-06-10T14:02:29;98624.88;;;27.86;48.02
35655;BME280;21773;50.010;19.972;2023-06-10T14:05:33;98622.41;;;27.73;47.43
35655;BME280;21773;50.010;19.972;2023-06-10T14:08:36;98627.13;;;28.05;48.25
35655;BME280;21773;50.010;19.972;2023-06-10T14:11:40;98622.22;;;28.35;47.16
35655;BME280;21773;50.010;19.972;2023-06-10T14:14:45;98625.50;;;28.49;47.22
35655;BME280;21773;50.010;19.972;2023-06-10T14:17:49;98616.16;;;28.54;46.12
35655;BME280;21773;50.010;19.972;2023-06-10T14:20:52;98618.66;;;28.71;45.76
35655;BME280;21773;50.010;19.972;2023-06-10T14:23:56;98620.19;;;28.80;45.66
35655;BME280;21773;50.010;19.972;2023-06-10T14:26:59;98606.06;;;28.61;45.12
35655;BME280;21773;50.010;19.972;2023-06-10T14:30:05;98630.72;;;28.87;46.36
35655;BME280;21773;50.010;19.972;2023-06-10T14:33:08;98617.75;;;28.91;45.77
35655;BME280;21773;50.010;19.972;2023-06-10T14:36:12;98617.66;;;28.75;45.82
35655;BME280;21773;50.010;19.972;2023-06-10T14:39:15;98635.94;;;28.76;45.21
35655;BME280;21773;50.010;19.972;2023-06-10T14:42:19;98614.28;;;28.33;45.03
35655;BME280;21773;50.010;19.972;2023-06-10T14:45:23;98619.81;;;28.46;47.00
35655;BME280;21773;50.010;19.972;2023-06-10T14:48:27;98627.13;;;28.62;47.58
35655;BME280;21773;50.010;19.972;2023-06-10T14:51:30;98630.00;;;28.66;46.51
35655;BME280;21773;50.010;19.972;2023-06-10T14:54:37;98625.94;;;28.51;46.28
35655;BME280;21773;50.010;19.972;2023-06-10T14:57:40;98628.38;;;28.53;46.01
35655;BME280;21773;50.010;19.972;2023-06-10T15:00:45;98618.22;;;28.57;45.93
35655;BME280;21773;50.010;19.972;2023-06-10T15:03:48;98625.25;;;28.54;44.14
35655;BME280;21773;50.010;19.972;2023-06-10T15:06:52;98627.69;;;28.56;44.60
35655;BME280;21773;50.010;19.972;2023-06-10T15:09:55;98619.47;;;27.90;43.42
35655;BME280;21773;50.010;19.972;2023-06-10T15:12:59;98628.44;;;27.87;45.24
35655;BME280;21773;50.010;19.972;2023-06-10T15:16:04;98634.03;;;27.66;45.75
35655;BME280;21773;50.010;19.972;2023-06-10T15:19:08;98614.16;;;27.43;45.36
35655;BME280;21773;50.010;19.972;2023-06-10T15:22:12;98636.22;;;27.61;47.08
35655;BME280;21773;50.010;19.972;2023-06-10T15:25:15;98633.97;;;27.33;46.25
35655;BME280;21773;50.010;19.972;2023-06-10T15:28:32;98630.13;;;27.26;46.24
35655;BME280;21773;50.010;19.972;2023-06-10T15:31:37;98621.69;;;27.01;45.81
35655;BME280;21773;50.010;19.972;2023-06-10T15:34:41;98623.81;;;26.96;47.79
35655;BME280;21773;50.010;19.972;2023-06-10T15:37:44;98629.97;;;27.01;46.91
35655;BME280;21773;50.010;19.972;2023-06-10T15:40:47;98639.09;;;27.02;47.26
35655;BME280;21773;50.010;19.972;2023-06-10T15:43:51;98635.72;;;27.17;47.46
35655;BME280;21773;50.010;19.972;2023-06-10T15:46:56;98643.44;;;27.03;48.35
35655;BME280;21773;50.010;19.972;2023-06-10T15:49:59;98634.22;;;26.99;49.03
35655;BME280;21773;50.010;19.972;2023-06-10T15:53:02;98631.19;;;26.92;49.33
35655;BME280;21773;50.010;19.972;2023-06-10T15:56:06;98642.44;;;26.78;49.43
35655;BME280;21773;50.010;19.972;2023-06-10T15:59:09;98646.97;;;26.53;50.06
35655;BME280;21773;50.010;19.972;2023-06-10T16:02:15;98651.16;;;26.59;50.83
35655;BME280;21773;50.010;19.972;2023-06-10T16:05:18;98650.84;;;26.61;50.26